Time;durP1;ratioP1;P1;durP2;ratioP2;P2;SDS_P1;SDS_P2;PMS_P1;PMS_P2;Temp;Humidity;BMP_temperature;BMP_pressure;BME280_temperature;BME280_humidity;BME280_pressure;Samples;Min_cycle;Max_cycle;Signal;HPM_P1;HPM_P2
2023/09/16 00:01:51;;;;;;;10.20;4.80;;;15.00;99.90;;;;;;5003933;28;20514;-33
2023/09/16 00:04:17;;;;;;;7.00;4.55;;;15.00;99.90;;;;;;5009090;28;20073;-33
2023/09/16 00:06:43;;;;;;;7.97;4.85;;;14.90;99.90;;;;;;4979790;28;20058;-32
2023/09/16 00:09:09;;;;;;;7.35;4.82;;;14.90;99.90;;;;;;5005248;28;20396;-33
2023/09/16 00:11:36;;;;;;;7.95;5.30;;;14.90;99.90;;;;;;5004994;28;20050;-33
2023/09/16 00:14:02;;;;;;;7.20;4.70;;;14.80;99.90;;;;;;5007134;28;20042;-33
2023/09/16 00:16:29;;;;;;;9.57;5.00;;;14.80;99.90;;;;;;5006615;28;20046;-33
2023/09/16 00:18:55;;;;;;;8.82;4.40;;;14.80;99.90;;;;;;5007020;28;20208;-33
2023/09/16 00:21:21;;;;;;;7.38;4.70;;;14.80;99.90;;;;;;5003142;28;20085;-33
2023/09/16 00:23:47;;;;;;;7.72;4.85;;;14.80;99.90;;;;;;5003636;28;20049;-33
2023/09/16 00:26:15;;;;;;;7.45;4.72;;;14.80;99.90;;;;;;5007913;28;20053;-33
2023/09/16 00:28:40;;;;;;;7.15;4.68;;;14.80;99.90;;;;;;5008681;28;20557;-33
2023/09/16 00:31:07;;;;;;;7.03;4.45;;;14.80;99.90;;;;;;5005198;28;20085;-33
2023/09/16 00:33:33;;;;;;;8.55;5.13;;;14.80;99.90;;;;;;5006260;28;20126;-33
2023/09/16 00:35:59;;;;;;;7.38;5.28;;;14.80;99.90;;;;;;5006979;28;20058;-32
2023/09/16 00:38:24;;;;;;;7.55;5.07;;;14.70;99.90;;;;;;5007393;28;20082;-33
2023/09/16 00:40:51;;;;;;;6.13;4.53;;;14.70;99.90;;;;;;5006466;28;20054;-33
2023/09/16 00:43:16;;;;;;;6.72;5.00;;;14.70;99.90;;;;;;5002525;28;20108;-32
2023/09/16 00:45:42;;;;;;;9.27;5.32;;;14.60;99.90;;;;;;5004425;28;20483;-33
2023/09/16 00:48:12;;;;;;;8.98;5.15;;;14.70;99.90;;;;;;5004789;28;20045;-33
2023/09/16 00:50:38;;;;;;;6.10;4.60;;;14.70;99.90;;;;;;5007695;28;20057;-34
2023/09/16 00:53:04;;;;;;;7.13;4.90;;;14.70;99.90;;;;;;5006543;28;20062;-32
2023/09/16 00:55:29;;;;;;;8.00;4.40;;;14.60;99.90;;;;;;5006987;28;20165;-32
2023/09/16 00:57:56;;;;;;;7.38;5.05;;;14.60;99.90;;;;;;5004162;28;20057;-32
2023/09/16 01:00:26;;;;;;;8.02;4.93;;;14.60;99.90;;;;;;5006580;28;20048;-32
2023/09/16 01:02:53;;;;;;;7.65;5.38;;;14.60;99.90;;;;;;5003517;28;20050;-32
2023/09/16 01:05:19;;;;;;;8.02;5.30;;;14.60;99.90;;;;;;5006657;28;20135;-33
2023/09/16 01:07:46;;;;;;;7.25;5.85;;;14.60;99.90;;;;;;5002335;28;20096;-32
2023/09/16 01:10:13;;;;;;;9.48;5.25;;;14.60;99.90;;;;;;5001372;28;20050;-33
2023/09/16 01:12:39;;;;;;;6.78;5.38;;;14.60;99.90;;;;;;5003075;28;20057;-32
2023/09/16 01:15:06;;;;;;;8.60;5.57;;;14.60;99.90;;;;;;5004768;28;20054;-33
2023/09/16 01:17:43;;;;;;;6.80;4.95;;;14.50;99.90;;;;;;5004810;28;20099;-33
2023/09/16 01:20:15;;;;;;;8.88;5.00;;;14.60;99.90;;;;;;5005055;28;20045;-33
2023/09/16 01:22:45;;;;;;;7.60;5.32;;;14.50;99.90;;;;;;5008593;28;20046;-33
2023/09/16 01:25:15;;;;;;;8.20;5.97;;;14.50;99.90;;;;;;5010050;28;20561;-33
2023/09/16 01:27:42;;;;;;;9.88;5.35;;;14.50;99.90;;;;;;5007081;28;20065;-33
2023/09/16 01:30:08;;;;;;;6.40;4.95;;;14.50;99.90;;;;;;5010245;28;20042;-33
2023/09/16 01:32:41;;;;;;;7.93;5.55;;;14.50;99.90;;;;;;4990977;28;20084;-32
2023/09/16 01:35:07;;;;;;;;;;;14.50;99.90;;;;;;5011101;28;20125;-32
2023/09/16 01:37:35;;;;;;;7.82;5.25;;;14.50;99.90;;;;;;5008580;28;19928;-33
2023/09/16 01:40:07;;;;;;;9.25;5.70;;;14.50;99.90;;;;;;5009517;28;20140;-33
2023/09/16 01:42:34;;;;;;;7.18;5.07;;;14.40;99.90;;;;;;5009478;28;20064;-33
2023/09/16 01:45:01;;;;;;;7.75;5.43;;;14.40;99.90;;;;;;5008720;28;20072;-33
2023/09/16 01:47:27;;;;;;;7.55;5.18;;;14.40;99.90;;;;;;5008136;28;20060;-33
2023/09/16 01:49:52;;;;;;;7.68;5.18;;;14.40;99.90;;;;;;5007556;28;20526;-33
2023/09/16 01:52:18;;;;;;;6.90;5.38;;;14.40;99.90;;;;;;5010488;28;20058;-33
2023/09/16 01:54:44;;;;;;;7.57;5.28;;;14.40;99.90;;;;;;5008154;28;20131;-33
2023/09/16 01:57:09;;;;;;;6.50;5.07;;;14.30;99.90;;;;;;5009068;28;20476;-33
2023/09/16 01:59:35;;;;;;;8.77;4.85;;;14.30;99.90;;;;;;5011564;28;20049;-33
2023/09/16 02:02:01;;;;;;;8.50;5.70;;;14.30;99.90;;;;;;5007330;28;20069;-33
2023/09/16 02:04:26;;;;;;;7.18;5.45;;;14.30;99.90;;;;;;5010706;28;20077;-33
2023/09/16 02:06:52;;;;;;;6.82;5.35;;;14.30;99.90;;;;;;5006125;28;20057;-33
2023/09/16 02:09:18;;;;;;;12.50;6.20;;;14.20;99.90;;;;;;4992038;28;20041;-34
2023/09/16 02:11:44;;;;;;;8.02;5.72;;;14.30;99.90;;;;;;5011202;28;20045;-34
2023/09/16 02:14:12;;;;;;;8.10;5.35;;;14.20;99.90;;;;;;5007895;28;20049;-33
2023/09/16 02:16:38;;;;;;;6.15;4.97;;;14.20;99.90;;;;;;5010568;28;20053;-34
2023/09/16 02:19:04;;;;;;;9.63;5.68;;;14.20;99.90;;;;;;5008772;28;20042;-33
2023/09/16 02:21:30;;;;;;;6.63;5.10;;;14.20;99.90;;;;;;5005219;28;20073;-33
2023/09/16 02:23:56;;;;;;;7.10;5.35;;;14.20;99.90;;;;;;5007206;28;20178;-33
2023/09/16 02:26:21;;;;;;;7.88;5.15;;;14.20;99.90;;;;;;5007048;28;20144;-33
2023/09/16 02:28:47;;;;;;;10.18;6.05;;;14.20;99.90;;;;;;5008441;28;20569;-33
2023/09/16 02:31:12;;;;;;;7.32;5.45;;;14.20;99.90;;;;;;5009438;28;20060;-34
2023/09/16 02:33:38;;;;;;;7.88;6.00;;;14.20;99.90;;;;;;5008135;28;20423;-33
2023/09/16 02:36:07;;;;;;;8.00;5.70;;;14.20;99.90;;;;;;4999240;28;20524;-34
2023/09/16 02:38:33;;;;;;;7.50;5.63;;;14.20;99.90;;;;;;5009110;28;20052;-33
2023/09/16 02:41:03;;;;;;;7.30;5.55;;;14.10;99.90;;;;;;5007903;28;20053;-33
2023/09/16 02:43:29;;;;;;;6.80;5.00;;;14.10;99.90;;;;;;5006773;28;20072;-33
2023/09/16 02:45:58;;;;;;;7.20;5.55;;;14.10;99.90;;;;;;5009804;28;20053;-33
2023/09/16 02:48:24;;;;;;;8.02;5.82;;;14.10;99.90;;;;;;5006932;28;20133;-33
2023/09/16 02:50:49;;;;;;;7.97;5.10;;;14.00;99.90;;;;;;5005880;28;20550;-33
2023/09/16 02:53:18;;;;;;;12.02;6.72;;;14.00;99.90;;;;;;5007849;28;20058;-32
2023/09/16 02:55:44;;;;;;;9.82;5.93;;;14.00;99.90;;;;;;5006602;28;20345;-33
2023/09/16 02:58:09;;;;;;;7.53;5.72;;;14.00;99.90;;;;;;5006636;28;20084;-33
2023/09/16 03:00:35;;;;;;;8.40;5.82;;;14.00;99.90;;;;;;5009172;28;20050;-34
2023/09/16 03:03:01;;;;;;;7.72;5.80;;;14.00;99.90;;;;;;5006863;28;20046;-34
2023/09/16 03:05:26;;;;;;;7.55;5.57;;;14.00;99.90;;;;;;4990744;28;20054;-33
2023/09/16 03:07:52;;;;;;;8.55;5.95;;;14.00;99.90;;;;;;5006962;28;20042;-33
2023/09/16 03:10:18;;;;;;;8.80;6.13;;;14.00;99.90;;;;;;5008838;28;20073;-33
2023/09/16 03:12:43;;;;;;;7.93;5.97;;;14.00;99.90;;;;;;5004236;28;20464;-33
2023/09/16 03:15:10;;;;;;;8.40;6.25;;;14.00;99.90;;;;;;5007510;28;20133;-33
2023/09/16 03:17:36;;;;;;;7.13;5.65;;;14.00;99.90;;;;;;5000384;28;20538;-33
2023/09/16 03:20:02;;;;;;;10.15;6.78;;;14.00;99.90;;;;;;5004466;28;20050;-32
2023/09/16 03:22:28;;;;;;;8.00;5.85;;;13.90;99.90;;;;;;5004851;28;20054;-33
2023/09/16 03:24:53;;;;;;;8.23;5.25;;;13.90;99.90;;;;;;5006823;28;20507;-33
2023/09/16 03:27:19;;;;;;;7.47;5.47;;;13.90;99.90;;;;;;5006662;28;20056;-33
2023/09/16 03:29:45;;;;;;;8.95;4.97;;;13.90;99.90;;;;;;5006290;28;20137;-33
2023/09/16 03:32:10;;;;;;;10.52;5.97;;;13.90;99.90;;;;;;5008068;28;20459;-33
2023/09/16 03:34:36;;;;;;;9.57;6.22;;;13.90;99.90;;;;;;5004747;28;20089;-33
2023/09/16 03:37:01;;;;;;;9.52;6.50;;;13.90;99.90;;;;;;5008015;28;20077;-34
2023/09/16 03:39:27;;;;;;;8.77;6.38;;;13.80;99.90;;;;;;5005717;28;20049;-33
2023/09/16 03:41:54;;;;;;;8.50;6.45;;;13.80;99.90;;;;;;5009067;28;20076;-34
2023/09/16 03:44:19;;;;;;;8.82;6.15;;;13.80;99.90;;;;;;4988999;28;20078;-33
2023/09/16 03:46:45;;;;;;;7.95;5.97;;;13.80;99.90;;;;;;5008409;28;20088;-33
2023/09/16 03:49:11;;;;;;;8.75;5.70;;;13.80;99.90;;;;;;5007036;28;20100;-33
2023/09/16 03:51:38;;;;;;;7.25;5.57;;;13.80;99.90;;;;;;5006328;28;20053;-34
2023/09/16 03:54:06;;;;;;;8.13;6.03;;;13.70;99.90;;;;;;5007825;28;20499;-34
2023/09/16 03:56:32;;;;;;;11.45;6.05;;;13.70;99.90;;;;;;5007482;28;20447;-34
2023/09/16 03:58:58;;;;;;;10.52;6.85;;;13.70;99.90;;;;;;5008618;28;20052;-33
2023/09/16 04:01:23;;;;;;;7.45;6.00;;;13.70;99.90;;;;;;5007540;28;20046;-33
2023/09/16 04:03:49;;;;;;;8.10;5.88;;;13.70;99.90;;;;;;4989988;28;20068;-33
2023/09/16 04:06:15;;;;;;;8.73;6.35;;;13.70;99.90;;;;;;5008320;28;20495;-33
2023/09/16 04:08:40;;;;;;;7.68;6.20;;;13.70;99.90;;;;;;5007198;28;20049;-34
2023/09/16 04:11:06;;;;;;;8.35;6.10;;;13.60;99.90;;;;;;5007747;28;20057;-33
2023/09/16 04:13:32;;;;;;;9.40;7.20;;;13.60;99.90;;;;;;5008362;28;20046;-33
2023/09/16 04:15:58;;;;;;;8.68;6.38;;;13.60;99.90;;;;;;5007391;28;20125;-33
2023/09/16 04:18:24;;;;;;;7.70;5.80;;;13.60;99.90;;;;;;5004855;28;20049;-33
2023/09/16 04:20:55;;;;;;;8.65;6.35;;;13.60;99.90;;;;;;5008267;28;20057;-33
2023/09/16 04:23:24;;;;;;;10.68;6.55;;;13.50;99.90;;;;;;5008463;28;20050;-33
2023/09/16 04:25:54;;;;;;;8.27;6.25;;;13.50;99.90;;;;;;5007385;28;20052;-34
2023/09/16 04:28:20;;;;;;;8.02;6.50;;;13.60;99.90;;;;;;5008062;28;20878;-33
2023/09/16 04:30:49;;;;;;;8.88;6.05;;;13.50;99.90;;;;;;5008850;28;20115;-32
2023/09/16 04:33:15;;;;;;;7.82;6.38;;;13.50;99.90;;;;;;4988322;28;20061;-34
2023/09/16 04:35:45;;;;;;;8.18;5.82;;;13.50;99.90;;;;;;5008758;28;20092;-33
2023/09/16 04:38:15;;;;;;;10.30;6.30;;;13.50;99.90;;;;;;4988807;28;20076;-33
2023/09/16 04:40:42;;;;;;;8.70;5.85;;;13.40;99.90;;;;;;5008001;28;20115;-33
2023/09/16 04:43:08;;;;;;;8.10;6.13;;;13.40;99.90;;;;;;5006157;28;20053;-34
2023/09/16 04:45:34;;;;;;;8.85;6.30;;;13.40;99.90;;;;;;5006872;28;20053;-34
2023/09/16 04:48:00;;;;;;;9.30;6.13;;;13.40;99.90;;;;;;5004909;28;20522;-33
2023/09/16 04:50:28;;;;;;;9.30;6.20;;;13.40;99.90;;;;;;5003525;28;20047;-34
2023/09/16 04:52:54;;;;;;;8.40;6.65;;;13.40;99.90;;;;;;5003124;28;20483;-33
2023/09/16 04:55:20;;;;;;;7.20;5.60;;;13.40;99.90;;;;;;5004616;28;20058;-32
2023/09/16 04:57:46;;;;;;;7.75;5.82;;;13.40;99.90;;;;;;5004660;28;20487;-33
2023/09/16 05:00:12;;;;;;;8.68;6.15;;;13.30;99.90;;;;;;5007016;28;20045;-33
2023/09/16 05:02:38;;;;;;;9.00;6.90;;;13.30;99.90;;;;;;5006521;28;20050;-33
2023/09/16 05:05:04;;;;;;;8.73;6.90;;;13.40;99.90;;;;;;4989876;28;20077;-34
2023/09/16 05:07:29;;;;;;;9.73;7.00;;;13.40;99.90;;;;;;5004566;28;20100;-33
2023/09/16 05:09:59;;;;;;;10.35;6.85;;;13.30;99.90;;;;;;5007640;28;20100;-34
2023/09/16 05:12:24;;;;;;;8.27;6.45;;;13.30;99.90;;;;;;5003242;28;20232;-34
2023/09/16 05:14:50;;;;;;;11.00;7.00;;;13.30;99.90;;;;;;5004128;28;20053;-33
2023/09/16 05:17:16;;;;;;;8.70;6.45;;;13.40;99.90;;;;;;5005785;28;20570;-33
2023/09/16 05:19:42;;;;;;;7.90;6.28;;;13.30;99.90;;;;;;5007019;28;20054;-33
2023/09/16 05:22:07;;;;;;;8.68;6.22;;;13.30;99.90;;;;;;5006071;28;20046;-34
2023/09/16 05:24:33;;;;;;;9.43;6.90;;;13.30;99.90;;;;;;5004884;28;20467;-33
2023/09/16 05:26:59;;;;;;;8.82;6.75;;;13.30;99.90;;;;;;5005854;28;20042;-33
2023/09/16 05:29:25;;;;;;;12.05;6.72;;;13.30;99.90;;;;;;4984048;28;20061;-34
2023/09/16 05:31:53;;;;;;;8.45;6.35;;;13.30;99.90;;;;;;5005311;28;20053;-33
2023/09/16 05:34:18;;;;;;;9.45;6.45;;;13.30;99.90;;;;;;5004929;28;20511;-33
2023/09/16 05:36:44;;;;;;;9.50;6.47;;;13.40;99.90;;;;;;5006954;28;20070;-33
2023/09/16 05:39:10;;;;;;;10.13;5.85;;;13.30;99.90;;;;;;5006022;28;20050;-34
2023/09/16 05:41:35;;;;;;;10.07;6.28;;;13.30;99.90;;;;;;5003234;28;20447;-33
2023/09/16 05:44:01;;;;;;;9.02;5.85;;;13.30;99.90;;;;;;5007114;28;20050;-32
2023/09/16 05:46:27;;;;;;;6.90;5.07;;;13.40;99.90;;;;;;5006772;28;20140;-33
2023/09/16 05:49:06;;;;;;;8.95;6.80;;;13.30;99.90;;;;;;5005096;28;20050;-33
2023/09/16 05:51:33;;;;;;;7.97;6.05;;;13.40;99.90;;;;;;5002999;28;20140;-33
2023/09/16 05:53:59;;;;;;;8.25;5.80;;;13.40;99.90;;;;;;5003260;28;20065;-33
2023/09/16 05:56:24;;;;;;;8.77;6.40;;;13.40;99.90;;;;;;5003087;28;20057;-33
2023/09/16 05:58:50;;;;;;;11.73;7.82;;;13.40;99.90;;;;;;5002644;28;20050;-33
2023/09/16 06:01:16;;;;;;;11.18;6.55;;;13.40;99.90;;;;;;5002966;28;20057;-33
2023/09/16 06:03:41;;;;;;;7.45;5.78;;;13.50;99.90;;;;;;5005387;28;20049;-33
2023/09/16 06:06:07;;;;;;;7.43;5.82;;;13.50;99.90;;;;;;5006276;28;20064;-33
2023/09/16 06:08:33;;;;;;;9.93;6.43;;;13.50;99.90;;;;;;5001109;28;20157;-33
2023/09/16 06:10:58;;;;;;;7.60;5.35;;;13.50;99.90;;;;;;5010431;28;20105;-33
2023/09/16 06:13:24;;;;;;;10.27;6.97;;;13.60;99.90;;;;;;5007440;28;20073;-33
2023/09/16 06:15:50;;;;;;;12.15;7.53;;;13.60;99.90;;;;;;5009989;28;20502;-33
2023/09/16 06:18:15;;;;;;;7.93;6.20;;;13.70;99.90;;;;;;5011140;28;20045;-33
2023/09/16 06:20:41;;;;;;;12.43;7.18;;;13.70;99.90;;;;;;5006859;28;20065;-33
2023/09/16 06:23:07;;;;;;;8.77;6.63;;;13.70;99.90;;;;;;5007066;28;20060;-33
2023/09/16 06:25:36;;;;;;;8.38;6.63;;;13.80;99.90;;;;;;5009160;28;20409;-33
2023/09/16 06:28:03;;;;;;;8.07;5.45;;;13.90;99.90;;;;;;5010067;28;20064;-33
2023/09/16 06:30:30;;;;;;;9.93;6.72;;;13.90;99.90;;;;;;5011279;28;20107;-33
2023/09/16 06:32:57;;;;;;;10.77;6.60;;;13.90;99.90;;;;;;5010396;28;20045;-33
2023/09/16 06:35:23;;;;;;;8.55;6.78;;;14.00;99.90;;;;;;5011530;28;20077;-33
2023/09/16 06:37:49;;;;;;;7.90;6.18;;;14.00;99.90;;;;;;5008821;28;20127;-34
2023/09/16 06:40:17;;;;;;;8.68;6.43;;;14.10;99.90;;;;;;5011490;28;20058;-34
2023/09/16 06:42:43;;;;;;;9.98;6.18;;;14.10;99.90;;;;;;5005979;28;20057;-33
2023/09/16 06:45:09;;;;;;;9.90;7.20;;;14.20;99.90;;;;;;5010994;28;20563;-33
2023/09/16 06:47:34;;;;;;;8.93;6.72;;;14.20;99.90;;;;;;5009874;28;20136;-33
2023/09/16 06:50:01;;;;;;;7.82;6.40;;;14.30;99.90;;;;;;5007813;28;20488;-34
2023/09/16 06:52:28;;;;;;;11.20;6.32;;;14.40;99.90;;;;;;5010071;28;20062;-33
2023/09/16 06:54:54;;;;;;;8.32;6.47;;;14.50;99.90;;;;;;5009018;28;20061;-33
2023/09/16 06:57:20;;;;;;;10.65;6.60;;;14.50;99.90;;;;;;5003203;28;20500;-34
2023/09/16 06:59:47;;;;;;;10.73;6.57;;;14.60;99.90;;;;;;5010234;28;20061;-33
2023/09/16 07:02:13;;;;;;;7.93;5.72;;;14.70;99.90;;;;;;5004930;28;20404;-33
2023/09/16 07:04:40;;;;;;;8.00;5.47;;;14.80;99.90;;;;;;5008590;28;20067;-33
2023/09/16 07:07:06;;;;;;;9.10;6.57;;;14.80;99.90;;;;;;5006613;28;20559;-33
2023/09/16 07:09:32;;;;;;;8.05;5.60;;;14.90;99.90;;;;;;5006478;28;20570;-33
2023/09/16 07:11:58;;;;;;;9.75;6.07;;;15.00;99.90;;;;;;5001191;28;20049;-33
2023/09/16 07:14:24;;;;;;;7.85;5.53;;;15.10;99.90;;;;;;5006865;28;20091;-34
2023/09/16 07:16:49;;;;;;;7.47;5.78;;;15.20;99.90;;;;;;5008918;28;20057;-34
2023/09/16 07:19:15;;;;;;;10.30;6.60;;;15.30;99.90;;;;;;5007859;28;20132;-34
2023/09/16 07:21:41;;;;;;;9.10;6.53;;;15.40;99.90;;;;;;5007719;28;20409;-34
2023/09/16 07:24:06;;;;;;;6.50;5.30;;;15.50;99.90;;;;;;5007368;28;20061;-34
2023/09/16 07:26:32;;;;;;;6.88;5.15;;;15.50;99.90;;;;;;5006766;28;20108;-33
2023/09/16 07:28:58;;;;;;;11.35;5.75;;;15.60;99.90;;;;;;5007286;28;20045;-34
2023/09/16 07:31:24;;;;;;;8.18;5.90;;;15.70;99.90;;;;;;5007143;28;20053;-34
2023/09/16 07:33:49;;;;;;;9.00;5.63;;;15.80;99.90;;;;;;5002689;28;20133;-34
2023/09/16 07:36:15;;;;;;;7.40;5.88;;;15.90;99.90;;;;;;5006538;28;20125;-34
2023/09/16 07:38:41;;;;;;;9.20;5.90;;;16.00;99.90;;;;;;5006151;28;20046;-34
2023/09/16 07:41:06;;;;;;;7.95;5.50;;;16.10;99.90;;;;;;4997982;28;20611;-33
2023/09/16 07:43:32;;;;;;;9.55;6.30;;;16.20;99.90;;;;;;5011981;28;20057;-34
2023/09/16 07:45:59;;;;;;;8.05;5.82;;;16.30;99.90;;;;;;5004765;28;20127;-34
2023/09/16 07:48:25;;;;;;;8.25;6.50;;;16.40;99.90;;;;;;5005493;28;20074;-35
2023/09/16 07:50:50;;;;;;;7.82;5.30;;;16.50;99.90;;;;;;4990414;28;20108;-33
2023/09/16 07:53:16;;;;;;;7.03;4.82;;;16.60;99.90;;;;;;4999697;28;20212;-34
2023/09/16 07:55:42;;;;;;;8.00;5.28;;;16.70;99.90;;;;;;5002081;28;20065;-34
2023/09/16 07:58:08;;;;;;;9.32;6.47;;;16.80;99.90;;;;;;5008278;28;20446;-34
2023/09/16 08:00:34;;;;;;;8.63;6.15;;;16.90;99.90;;;;;;5001928;28;20089;-34
2023/09/16 08:03:00;;;;;;;10.90;6.45;;;17.00;99.90;;;;;;5004917;28;20054;-34
2023/09/16 08:05:27;;;;;;;9.10;6.20;;;17.10;99.90;;;;;;5000711;28;20064;-34
2023/09/16 08:07:52;;;;;;;8.68;6.18;;;17.20;99.90;;;;;;5004093;28;20061;-33
2023/09/16 08:10:18;;;;;;;9.68;6.30;;;17.30;99.90;;;;;;5001199;28;20054;-34
2023/09/16 08:12:44;;;;;;;8.25;5.35;;;17.40;99.90;;;;;;5003031;28;20060;-33
2023/09/16 08:15:10;;;;;;;9.05;6.50;;;17.50;99.90;;;;;;5008042;28;20467;-34
2023/09/16 08:17:39;;;;;;;7.97;6.20;;;17.70;99.90;;;;;;5003831;28;20064;-34
2023/09/16 08:20:06;;;;;;;8.98;5.95;;;17.80;99.90;;;;;;5007427;28;20054;-34
2023/09/16 08:22:32;;;;;;;8.95;6.40;;;18.00;99.90;;;;;;5003479;28;20046;-34
2023/09/16 08:24:57;;;;;;;8.40;5.40;;;18.10;99.90;;;;;;4984547;28;20045;-35
2023/09/16 08:27:23;;;;;;;7.70;5.57;;;18.20;99.90;;;;;;5002515;28;20057;-34
2023/09/16 08:29:52;;;;;;;7.82;6.13;;;18.30;99.90;;;;;;5005505;28;20049;-33
2023/09/16 08:32:18;;;;;;;8.77;5.63;;;18.50;99.90;;;;;;4998899;28;20058;-34
2023/09/16 08:34:44;;;;;;;9.18;6.05;;;18.60;99.90;;;;;;5000580;28;20104;-34
2023/09/16 08:37:13;;;;;;;7.80;5.30;;;18.70;99.90;;;;;;5004472;28;20599;-34
2023/09/16 08:39:39;;;;;;;8.80;5.30;;;18.80;99.90;;;;;;5005040;28;20046;-34
2023/09/16 08:42:33;;;;;;;8.88;5.45;;;18.90;99.90;;;;;;5002597;28;20045;-34
2023/09/16 08:45:03;;;;;;;7.53;5.80;;;18.90;99.90;;;;;;5002576;28;20093;-33
2023/09/16 08:47:34;;;;;;;7.28;4.97;;;19.00;99.90;;;;;;5002605;28;20532;-34
2023/09/16 08:50:10;;;;;;;9.63;4.88;;;19.10;99.90;;;;;;5000032;28;20057;-33
2023/09/16 08:52:49;;;;;;;8.15;5.50;;;19.10;99.90;;;;;;5003305;28;20496;-33
2023/09/16 08:55:15;;;;;;;10.52;6.25;;;19.20;99.90;;;;;;5001875;28;20615;-34
2023/09/16 08:57:55;;;;;;;6.90;4.50;;;19.10;99.90;;;;;;5003977;28;20137;-34
2023/09/16 09:00:21;;;;;;;8.77;5.50;;;19.10;99.90;;;;;;5003276;28;20073;-34
2023/09/16 09:02:48;;;;;;;7.63;4.80;;;19.10;99.90;;;;;;5005671;28;20088;-33
2023/09/16 09:05:15;;;;;;;6.72;4.90;;;19.10;99.90;;;;;;5008591;28;20049;-34
2023/09/16 09:07:41;;;;;;;7.40;4.93;;;19.10;99.90;;;;;;5002596;28;20447;-34
2023/09/16 09:10:12;;;;;;;6.38;4.30;;;19.20;99.90;;;;;;5001951;28;20050;-33
2023/09/16 09:12:41;;;;;;;8.43;5.18;;;19.20;99.90;;;;;;5003356;28;20061;-32
2023/09/16 09:15:12;;;;;;;7.75;5.18;;;19.20;99.90;;;;;;5007831;28;20061;-34
2023/09/16 09:17:46;;;;;;;10.07;5.25;;;19.30;99.90;;;;;;5003263;28;20450;-33
2023/09/16 09:20:15;;;;;;;6.43;4.75;;;19.30;99.90;;;;;;5010861;28;20061;-34
2023/09/16 09:22:41;;;;;;;7.95;4.80;;;19.40;99.90;;;;;;5002396;28;20420;-34
2023/09/16 09:25:07;;;;;;;7.05;4.75;;;19.40;99.90;;;;;;5007263;28;20121;-35
2023/09/16 09:27:34;;;;;;;6.65;4.95;;;19.50;99.90;;;;;;5004917;28;20164;-34
2023/09/16 09:29:59;;;;;;;6.82;4.68;;;19.60;99.90;;;;;;5004642;28;20057;-34
2023/09/16 09:32:34;;;;;;;10.40;5.80;;;19.80;99.90;;;;;;5008513;28;20061;-33
2023/09/16 09:35:07;;;;;;;7.88;5.07;;;20.00;99.90;;;;;;5006951;28;20500;-34
2023/09/16 09:37:33;;;;;;;5.28;3.60;;;20.20;99.90;;;;;;5001347;28;20054;-32
2023/09/16 09:40:13;;;;;;;7.35;3.28;;;20.30;99.90;;;;;;5004708;28;20049;-33
2023/09/16 09:42:46;;;;;;;4.80;3.67;;;20.40;99.90;;;;;;5004670;28;20054;-33
2023/09/16 09:45:14;;;;;;;6.20;4.05;;;20.50;99.90;;;;;;5010474;28;20411;-34
2023/09/16 09:47:41;;;;;;;8.55;4.95;;;20.60;99.90;;;;;;5000917;28;20381;-34
2023/09/16 09:50:13;;;;;;;5.53;4.15;;;20.70;99.90;;;;;;5011662;28;20139;-34
2023/09/16 09:52:39;;;;;;;5.85;3.55;;;20.90;99.90;;;;;;5006968;28;20151;-33
2023/09/16 09:55:05;;;;;;;5.50;3.67;;;21.00;99.90;;;;;;5009959;28;20042;-34
2023/09/16 09:57:30;;;;;;;9.27;4.40;;;21.10;99.90;;;;;;5008383;28;20053;-33
2023/09/16 09:59:57;;;;;;;5.85;3.30;;;21.20;99.90;;;;;;5008370;28;20054;-34
2023/09/16 10:02:27;;;;;;;6.10;3.83;;;21.40;99.90;;;;;;5010603;28;20140;-33
2023/09/16 10:05:01;;;;;;;5.05;3.05;;;21.50;99.90;;;;;;5008639;28;20065;-34
2023/09/16 10:07:30;;;;;;;7.03;3.08;;;21.60;99.90;;;;;;5011034;28;20053;-34
2023/09/16 10:09:56;;;;;;;5.53;3.33;;;21.70;99.90;;;;;;5009703;28;20058;-32
2023/09/16 10:12:22;;;;;;;6.55;2.83;;;21.80;99.90;;;;;;5006968;28;20519;-34
2023/09/16 10:14:48;;;;;;;4.97;3.17;;;21.90;99.90;;;;;;5007880;28;20546;-34
2023/09/16 10:17:15;;;;;;;6.18;2.95;;;21.90;99.90;;;;;;5006084;28;20058;-43
2023/09/16 10:19:43;;;;;;;5.15;2.70;;;22.10;99.90;;;;;;5006051;28;20048;-34
2023/09/16 10:22:13;;;;;;;4.93;2.90;;;22.20;99.90;;;;;;5006566;28;20049;-34
2023/09/16 10:24:41;;;;;;;4.95;2.58;;;22.40;99.90;;;;;;4999311;28;20404;-32
2023/09/16 10:27:14;;;;;;;5.07;2.83;;;22.50;99.90;;;;;;5004106;28;20480;-33
2023/09/16 10:29:41;;;;;;;4.55;3.03;;;22.70;99.90;;;;;;5008429;28;20060;-33
2023/09/16 10:32:07;;;;;;;4.22;2.88;;;22.80;99.90;;;;;;5009019;28;20103;-33
2023/09/16 10:34:34;;;;;;;4.65;2.85;;;22.90;99.90;;;;;;5004255;28;20054;-34
2023/09/16 10:37:00;;;;;;;4.88;3.47;;;23.00;99.90;;;;;;4985965;28;20057;-34
2023/09/16 10:39:28;;;;;;;5.80;2.90;;;23.10;99.90;;;;;;4990309;28;20045;-34
2023/09/16 10:41:54;;;;;;;5.88;2.85;;;23.20;99.90;;;;;;5010256;28;20046;-33
2023/09/16 10:44:20;;;;;;;5.53;3.25;;;23.30;99.90;;;;;;5006461;28;20045;-34
2023/09/16 10:46:49;;;;;;;4.43;3.33;;;23.30;99.90;;;;;;5009219;28;20049;-34
2023/09/16 10:49:14;;;;;;;6.20;2.90;;;23.30;99.90;;;;;;5003818;28;20061;-34
2023/09/16 10:51:41;;;;;;;5.28;3.45;;;23.20;99.90;;;;;;5007373;28;20300;-33
2023/09/16 10:54:13;;;;;;;6.13;2.78;;;23.40;99.90;;;;;;5007472;28;20518;-33
2023/09/16 10:56:43;;;;;;;;;;;23.60;99.90;;;;;;5003839;28;20492;-33
2023/09/16 10:59:13;;;;;;;5.63;3.10;;;23.80;99.90;;;;;;5004428;28;19944;-34
2023/09/16 11:01:46;;;;;;;4.53;2.70;;;23.80;99.90;;;;;;5007809;28;21613;-34
2023/09/16 11:04:17;;;;;;;7.90;3.20;;;23.90;99.90;;;;;;5005224;28;20183;-34
2023/09/16 11:06:47;;;;;;;4.97;2.88;;;24.10;99.90;;;;;;5003781;28;20046;-33
2023/09/16 11:09:14;;;;;;;5.68;3.70;;;24.30;99.90;;;;;;5002853;28;20066;-34
2023/09/16 11:11:41;;;;;;;5.93;3.30;;;24.50;99.90;;;;;;5005928;28;20049;-34
2023/09/16 11:14:07;;;;;;;9.98;3.47;;;24.60;99.90;;;;;;5003198;28;20487;-34
2023/09/16 11:16:48;;;;;;;6.25;2.72;;;24.80;99.90;;;;;;5007072;28;20049;-33
2023/09/16 11:19:15;;;;;;;4.50;2.58;;;25.10;99.90;;;;;;5002560;28;20556;-34
2023/09/16 11:21:43;;;;;;;3.58;2.20;;;25.30;99.90;;;;;;4987079;28;20459;-34
2023/09/16 11:24:09;;;;;;;4.95;2.55;;;25.50;99.90;;;;;;4989419;28;20053;-34
2023/09/16 11:26:38;;;;;;;3.97;2.65;;;25.70;99.90;;;;;;5006382;28;20052;-33
2023/09/16 11:29:22;;;;;;;3.92;2.70;;;26.00;99.90;;;;;;5004972;28;20050;-34
2023/09/16 11:31:48;;;;;;;4.20;2.55;;;26.20;99.90;;;;;;5001495;28;20474;-33
2023/09/16 11:34:23;;;;;;;7.47;3.00;;;26.30;99.90;;;;;;5008427;28;20557;-33
2023/09/16 11:37:01;;;;;;;4.10;2.30;;;26.20;99.90;;;;;;5002580;28;20049;-34
2023/09/16 11:39:42;;;;;;;4.15;2.47;;;26.20;99.90;;;;;;4996089;28;20488;-34
2023/09/16 11:42:08;;;;;;;2.87;1.80;;;26.30;99.90;;;;;;5006684;28;20085;-35
2023/09/16 11:44:37;;;;;;;2.28;1.38;;;26.40;99.90;;;;;;5000230;28;20384;-34
2023/09/16 11:47:04;;;;;;;3.53;1.67;;;26.40;99.90;;;;;;5003653;28;20045;-34
2023/09/16 11:49:33;;;;;;;3.22;1.70;;;26.50;99.90;;;;;;5003865;28;20050;-33
2023/09/16 11:51:59;;;;;;;2.78;1.10;;;26.60;99.90;;;;;;5003884;28;20053;-34
2023/09/16 11:54:25;;;;;;;2.78;1.30;;;26.70;99.90;;;;;;5004212;28;20057;-34
2023/09/16 11:56:52;;;;;;;2.63;1.20;;;26.70;99.90;;;;;;5006495;28;20466;-34
2023/09/16 11:59:18;;;;;;;2.55;1.35;;;26.70;99.90;;;;;;5006139;28;20529;-34
2023/09/16 12:01:44;;;;;;;3.08;1.30;;;26.80;99.90;;;;;;5005456;28;20057;-35
2023/09/16 12:04:11;;;;;;;2.35;1.35;;;26.70;99.90;;;;;;5005058;28;20054;-34
2023/09/16 12:06:38;;;;;;;17.70;1.70;;;26.50;99.90;;;;;;4988152;28;20523;-34
2023/09/16 12:09:09;;;;;;;1.73;1.15;;;26.40;99.90;;;;;;5004129;28;20104;-34
2023/09/16 12:11:37;;;;;;;1.80;0.97;;;26.50;99.90;;;;;;5002304;28;20062;-34
2023/09/16 12:14:04;;;;;;;4.63;1.50;;;26.70;99.90;;;;;;5002723;28;20794;-33
2023/09/16 12:16:30;;;;;;;3.58;1.33;;;26.90;99.90;;;;;;5005873;28;20466;-33
2023/09/16 12:18:56;;;;;;;4.75;1.65;;;27.20;99.90;;;;;;5008159;28;20064;-33
2023/09/16 12:21:22;;;;;;;4.18;1.50;;;27.30;99.90;;;;;;5002197;28;20415;-33
2023/09/16 12:23:51;;;;;;;3.03;1.50;;;27.50;99.90;;;;;;5006156;28;20058;-33
2023/09/16 12:26:21;;;;;;;2.50;1.58;;;27.60;99.90;;;;;;5004266;28;20058;-33
2023/09/16 12:28:46;;;;;;;2.33;1.50;;;27.70;99.90;;;;;;5004582;28;20058;-33
2023/09/16 12:31:12;;;;;;;5.72;1.33;;;27.90;99.90;;;;;;5007938;28;20455;-33
2023/09/16 12:33:38;;;;;;;2.75;1.58;;;28.00;99.90;;;;;;5004161;28;20107;-33
2023/09/16 12:36:04;;;;;;;4.72;1.88;;;28.30;99.90;;;;;;4988082;28;20046;-33
2023/09/16 12:38:35;;;;;;;2.83;1.60;;;28.40;99.90;;;;;;5005073;28;20093;-34
2023/09/16 12:41:02;;;;;;;3.42;1.50;;;28.50;99.90;;;;;;5006607;28;20073;-34
2023/09/16 12:43:30;;;;;;;3.17;1.73;;;28.70;99.90;;;;;;5005891;28;20112;-35
2023/09/16 12:45:58;;;;;;;2.72;1.67;;;28.80;99.90;;;;;;5004181;28;20055;-34